Air Quality Table

TIMESTAMP NO2 O3 PM2.5 TEMP HUM AIRPRES WS WD NO
2022-08-15 17:00 3.89 µg/m3 93.29 µg/m3 8.16 µg/m3 30.93 °C N/A 998.49 mbar 2.29 m/s 196.81 Deg 0.88 µg/m3
2022-08-15 09:00 12 µg/m3 72.8 µg/m3 9.27 µg/m3 26.83 °C N/A 997.99 mbar 1.14 m/s 152.61 Deg 1.04 µg/m3
2022-08-15 01:00 7.92 µg/m3 89.17 µg/m3 12.34 µg/m3 28.17 °C N/A 997.26 mbar 0.85 m/s 262.1 Deg 0.37 µg/m3
2022-08-14 17:00 3.06 µg/m3 92.93 µg/m3 5.37 µg/m3 32.04 °C N/A 997.04 mbar 1.35 m/s 296.65 Deg 0.57 µg/m3
2022-08-14 09:00 4.01 µg/m3 83.59 µg/m3 3.46 µg/m3 27.41 °C N/A 998.13 mbar 1.46 m/s 299.13 Deg 0.63 µg/m3
2022-08-14 01:00 3.47 µg/m3 90.56 µg/m3 4.56 µg/m3 27.48 °C N/A 999.63 mbar 1.81 m/s 297.82 Deg 0.35 µg/m3
2022-08-13 17:00 4.33 µg/m3 101.09 µg/m3 5.42 µg/m3 29.93 °C N/A 1,000.74 mbar 1.8 m/s 318.68 Deg 0.67 µg/m3
2022-08-13 09:00 18.59 µg/m3 69.57 µg/m3 7.91 µg/m3 25.45 °C N/A 1,000.50 mbar 0.76 m/s 264.81 Deg 1.91 µg/m3
2022-08-13 01:00 8.55 µg/m3 94.48 µg/m3 5.16 µg/m3 26.65 °C N/A 1,000.16 mbar 1.05 m/s 282.04 Deg 0.7 µg/m3
2022-08-12 17:00 7.32 µg/m3 95.78 µg/m3 8.31 µg/m3 28.48 °C N/A 1,000.02 mbar 1.47 m/s 155.39 Deg 0.72 µg/m3
2022-08-12 09:00 24.19 µg/m3 27.01 µg/m3 10.55 µg/m3 24.22 °C N/A 1,000.08 mbar 0.58 m/s 248.49 Deg 8 µg/m3
2022-08-12 01:00 18.36 µg/m3 32.28 µg/m3 7.78 µg/m3 24.36 °C N/A 1,000.65 mbar 0.69 m/s 259.93 Deg 0.27 µg/m3
2022-08-11 17:00 12.56 µg/m3 71.66 µg/m3 7.03 µg/m3 26.59 °C N/A 1,000.98 mbar 2.1 m/s 182.09 Deg 1.77 µg/m3
2022-08-11 09:00 29.24 µg/m3 39.97 µg/m3 9.42 µg/m3 26.09 °C N/A 1,000.66 mbar 0.85 m/s 213.83 Deg 8.39 µg/m3
2022-08-11 01:00 13.29 µg/m3 63.28 µg/m3 8.47 µg/m3 27.71 °C N/A 1,001.13 mbar 0.71 m/s 281.21 Deg 0.42 µg/m3
2022-08-10 17:00 10.07 µg/m3 81.74 µg/m3 11.03 µg/m3 29.75 °C N/A 1,001.40 mbar 2.04 m/s 210.51 Deg 1.86 µg/m3
2022-08-10 09:00 20.33 µg/m3 52.37 µg/m3 13.67 µg/m3 26.74 °C N/A 1,001.37 mbar 0.69 m/s 250.96 Deg 1.84 µg/m3
2022-08-10 01:00 6.74 µg/m3 73.54 µg/m3 8.42 µg/m3 27.99 °C N/A 1,001.62 mbar 0.77 m/s 285.27 Deg 0.31 µg/m3
2022-08-09 17:00 12.26 µg/m3 100.71 µg/m3 13.45 µg/m3 31.06 °C N/A 1,001.40 mbar 1.54 m/s 231.7 Deg 1.54 µg/m3
2022-08-09 09:00 30.25 µg/m3 60.48 µg/m3 17.17 µg/m3 27.19 °C N/A 1,001.07 mbar 0.56 m/s 261.01 Deg 3.55 µg/m3

It is to be noted that the data is provisional and subject to quality assurance procedures. For validated data kindly refer your request to contact.air@era.org.mt